sensor_id;sensor_type;location;lat;lon;timestamp;pressure;altitude;pressure_sealevel;temperature;humidity
39275;BME280;24980;48.874;2.332;2023-04-24T00:00:17;100237.67;;;25.29;43.82
39275;BME280;24980;48.874;2.332;2023-04-24T00:02:50;100236.92;;;25.28;43.85
39275;BME280;24980;48.874;2.332;2023-04-24T00:05:18;100238.97;;;25.27;43.87
39275;BME280;24980;48.874;2.332;2023-04-24T00:07:51;100241.34;;;25.27;43.89
39275;BME280;24980;48.874;2.332;2023-04-24T00:10:21;100245.58;;;25.28;43.92
39275;BME280;24980;48.874;2.332;2023-04-24T00:12:52;100254.56;;;25.28;43.95
39275;BME280;24980;48.874;2.332;2023-04-24T00:15:19;100254.31;;;25.28;43.97
39275;BME280;24980;48.874;2.332;2023-04-24T00:17:49;100261.88;;;25.27;44.00
39275;BME280;24980;48.874;2.332;2023-04-24T00:20:19;100258.56;;;25.28;44.03
39275;BME280;24980;48.874;2.332;2023-04-24T00:22:49;100261.08;;;25.29;44.06
39275;BME280;24980;48.874;2.332;2023-04-24T00:25:19;100264.90;;;25.28;44.10
39275;BME280;24980;48.874;2.332;2023-04-24T00:27:50;100265.07;;;25.28;44.12
39275;BME280;24980;48.874;2.332;2023-04-24T00:30:20;100267.12;;;25.28;44.14
39275;BME280;24980;48.874;2.332;2023-04-24T00:32:50;100264.23;;;25.28;44.14
39275;BME280;24980;48.874;2.332;2023-04-24T00:35:22;100268.54;;;25.29;44.15
39275;BME280;24980;48.874;2.332;2023-04-24T00:37:50;100272.42;;;25.30;44.14
39275;BME280;24980;48.874;2.332;2023-04-24T00:40:21;100276.58;;;25.29;44.11
39275;BME280;24980;48.874;2.332;2023-04-24T00:42:51;100285.31;;;25.30;44.11
39275;BME280;24980;48.874;2.332;2023-04-24T00:45:21;100285.53;;;25.28;44.11
39275;BME280;24980;48.874;2.332;2023-04-24T00:47:52;100288.56;;;25.29;44.10
39275;BME280;24980;48.874;2.332;2023-04-24T00:50:22;100295.78;;;25.28;44.08
39275;BME280;24980;48.874;2.332;2023-04-24T00:52:52;100291.89;;;25.28;44.06
39275;BME280;24980;48.874;2.332;2023-04-24T00:55:22;100293.67;;;25.28;44.04
39275;BME280;24980;48.874;2.332;2023-04-24T00:57:52;100303.02;;;25.27;44.03
39275;BME280;24980;48.874;2.332;2023-04-24T01:00:23;100301.70;;;25.27;44.01
39275;BME280;24980;48.874;2.332;2023-04-24T01:02:53;100299.09;;;25.26;44.01
39275;BME280;24980;48.874;2.332;2023-04-24T01:05:23;100308.25;;;25.26;44.02
39275;BME280;24980;48.874;2.332;2023-04-24T01:07:53;100303.91;;;25.27;44.02
39275;BME280;24980;48.874;2.332;2023-04-24T01:10:27;100300.12;;;25.26;44.02
39275;BME280;24980;48.874;2.332;2023-04-24T01:12:55;100302.67;;;25.25;44.02
39275;BME280;24980;48.874;2.332;2023-04-24T01:15:25;100302.05;;;25.27;44.03
39275;BME280;24980;48.874;2.332;2023-04-24T01:17:57;100300.09;;;25.27;44.02
39275;BME280;24980;48.874;2.332;2023-04-24T01:20:27;100297.06;;;25.28;44.03
39275;BME280;24980;48.874;2.332;2023-04-24T01:22:57;100294.27;;;25.28;44.05
39275;BME280;24980;48.874;2.332;2023-04-24T01:25:28;100285.45;;;25.27;44.06
39275;BME280;24980;48.874;2.332;2023-04-24T01:27:58;100293.14;;;25.29;44.08
39275;BME280;24980;48.874;2.332;2023-04-24T01:30:30;100292.54;;;25.29;44.06
39275;BME280;24980;48.874;2.332;2023-04-24T01:33:01;100299.23;;;25.29;44.06
39275;BME280;24980;48.874;2.332;2023-04-24T01:35:31;100296.43;;;25.29;44.07
39275;BME280;24980;48.874;2.332;2023-04-24T01:37:59;100301.72;;;25.30;44.09
39275;BME280;24980;48.874;2.332;2023-04-24T01:40:29;100299.39;;;25.30;44.11
39275;BME280;24980;48.874;2.332;2023-04-24T01:42:59;100311.22;;;25.30;44.11
39275;BME280;24980;48.874;2.332;2023-04-24T01:45:29;100309.08;;;25.31;44.12
39275;BME280;24980;48.874;2.332;2023-04-24T01:48:00;100310.45;;;25.30;44.13
39275;BME280;24980;48.874;2.332;2023-04-24T01:50:36;100312.92;;;25.30;44.16
39275;BME280;24980;48.874;2.332;2023-04-24T01:53:01;100319.83;;;25.30;44.17
39275;BME280;24980;48.874;2.332;2023-04-24T01:55:32;100319.24;;;25.30;44.18
39275;BME280;24980;48.874;2.332;2023-04-24T01:58:02;100319.52;;;25.31;44.17
39275;BME280;24980;48.874;2.332;2023-04-24T02:00:33;100323.07;;;25.31;44.17
39275;BME280;24980;48.874;2.332;2023-04-24T02:03:03;100332.56;;;25.32;44.17
39275;BME280;24980;48.874;2.332;2023-04-24T02:05:33;100332.38;;;25.32;44.18
39275;BME280;24980;48.874;2.332;2023-04-24T02:08:04;100332.19;;;25.33;44.18
39275;BME280;24980;48.874;2.332;2023-04-24T02:10:34;100331.45;;;25.34;44.17
39275;BME280;24980;48.874;2.332;2023-04-24T02:13:04;100334.41;;;25.34;44.18
39275;BME280;24980;48.874;2.332;2023-04-24T02:15:34;100332.38;;;25.34;44.21
39275;BME280;24980;48.874;2.332;2023-04-24T02:18:05;100334.91;;;25.34;44.26
39275;BME280;24980;48.874;2.332;2023-04-24T02:20:35;100341.67;;;25.35;44.32
39275;BME280;24980;48.874;2.332;2023-04-24T02:23:05;100342.59;;;25.36;44.37
39275;BME280;24980;48.874;2.332;2023-04-24T02:25:35;100342.55;;;25.37;44.38
39275;BME280;24980;48.874;2.332;2023-04-24T02:28:05;100342.72;;;25.37;44.38
39275;BME280;24980;48.874;2.332;2023-04-24T02:30:35;100349.16;;;25.37;44.38
39275;BME280;24980;48.874;2.332;2023-04-24T02:33:05;100350.27;;;25.37;44.37
39275;BME280;24980;48.874;2.332;2023-04-24T02:35:35;100351.44;;;25.37;44.36
39275;BME280;24980;48.874;2.332;2023-04-24T02:38:05;100355.68;;;25.37;44.33
39275;BME280;24980;48.874;2.332;2023-04-24T02:40:43;100352.20;;;25.37;44.32
39275;BME280;24980;48.874;2.332;2023-04-24T02:43:05;100355.78;;;25.37;44.31
39275;BME280;24980;48.874;2.332;2023-04-24T02:45:35;100352.95;;;25.36;44.31
39275;BME280;24980;48.874;2.332;2023-04-24T02:48:05;100354.73;;;25.36;44.31
39275;BME280;24980;48.874;2.332;2023-04-24T02:50:35;100350.16;;;25.35;44.31
39275;BME280;24980;48.874;2.332;2023-04-24T02:53:08;100354.34;;;25.35;44.30
39275;BME280;24980;48.874;2.332;2023-04-24T02:55:36;100356.47;;;25.34;44.30
39275;BME280;24980;48.874;2.332;2023-04-24T02:58:06;100356.14;;;25.34;44.29
39275;BME280;24980;48.874;2.332;2023-04-24T03:00:36;100359.36;;;25.34;44.32
39275;BME280;24980;48.874;2.332;2023-04-24T03:03:06;100363.62;;;25.33;44.34
39275;BME280;24980;48.874;2.332;2023-04-24T03:05:36;100365.80;;;25.34;44.34
39275;BME280;24980;48.874;2.332;2023-04-24T03:08:06;100365.45;;;25.34;44.35
39275;BME280;24980;48.874;2.332;2023-04-24T03:10:36;100370.53;;;25.35;44.36
39275;BME280;24980;48.874;2.332;2023-04-24T03:13:06;100368.67;;;25.35;44.39
39275;BME280;24980;48.874;2.332;2023-04-24T03:15:37;100370.68;;;25.36;44.38
39275;BME280;24980;48.874;2.332;2023-04-24T03:18:07;100366.59;;;25.36;44.38
39275;BME280;24980;48.874;2.332;2023-04-24T03:20:37;100379.41;;;25.36;44.38
39275;BME280;24980;48.874;2.332;2023-04-24T03:23:07;100377.47;;;25.36;44.38
39275;BME280;24980;48.874;2.332;2023-04-24T03:25:37;100383.08;;;25.35;44.38
39275;BME280;24980;48.874;2.332;2023-04-24T03:28:07;100372.98;;;25.36;44.38
39275;BME280;24980;48.874;2.332;2023-04-24T03:30:37;100373.42;;;25.35;44.38
39275;BME280;24980;48.874;2.332;2023-04-24T03:33:07;100375.88;;;25.35;44.38
39275;BME280;24980;48.874;2.332;2023-04-24T03:35:37;100373.00;;;25.35;44.38
39275;BME280;24980;48.874;2.332;2023-04-24T03:38:07;100372.42;;;25.34;44.38
39275;BME280;24980;48.874;2.332;2023-04-24T03:40:37;100374.22;;;25.34;44.41
39275;BME280;24980;48.874;2.332;2023-04-24T03:43:07;100368.78;;;25.34;44.41
39275;BME280;24980;48.874;2.332;2023-04-24T03:45:37;100376.23;;;25.34;44.42
39275;BME280;24980;48.874;2.332;2023-04-24T03:48:07;100379.86;;;25.35;44.42
39275;BME280;24980;48.874;2.332;2023-04-24T03:50:37;100378.93;;;25.35;44.42
39275;BME280;24980;48.874;2.332;2023-04-24T03:53:08;100393.20;;;25.34;44.44
39275;BME280;24980;48.874;2.332;2023-04-24T03:55:38;100397.61;;;25.34;44.48
39275;BME280;24980;48.874;2.332;2023-04-24T03:58:08;100396.61;;;25.34;44.49
39275;BME280;24980;48.874;2.332;2023-04-24T04:00:40;100402.55;;;25.34;44.51
39275;BME280;24980;48.874;2.332;2023-04-24T04:03:10;100397.28;;;25.34;44.54
39275;BME280;24980;48.874;2.332;2023-04-24T04:05:40;100406.10;;;25.34;44.56
39275;BME280;24980;48.874;2.332;2023-04-24T04:08:10;100414.47;;;25.35;44.54
39275;BME280;24980;48.874;2.332;2023-04-24T04:10:40;100413.02;;;25.36;44.53
39275;BME280;24980;48.874;2.332;2023-04-24T04:13:10;100413.13;;;25.37;44.53
39275;BME280;24980;48.874;2.332;2023-04-24T04:15:40;100418.62;;;25.37;44.56
39275;BME280;24980;48.874;2.332;2023-04-24T04:18:14;100418.62;;;25.37;44.61
39275;BME280;24980;48.874;2.332;2023-04-24T04:20:41;100418.45;;;25.38;44.67
39275;BME280;24980;48.874;2.332;2023-04-24T04:25:46;100423.19;;;25.38;44.72
39275;BME280;24980;48.874;2.332;2023-04-24T04:28:12;100420.98;;;25.38;44.74
39275;BME280;24980;48.874;2.332;2023-04-24T04:30:44;100425.14;;;25.38;44.75
39275;BME280;24980;48.874;2.332;2023-04-24T04:33:12;100430.22;;;25.39;44.76
39275;BME280;24980;48.874;2.332;2023-04-24T04:35:42;100439.97;;;25.39;44.75
39275;BME280;24980;48.874;2.332;2023-04-24T04:38:12;100439.97;;;25.39;44.72
39275;BME280;24980;48.874;2.332;2023-04-24T04:40:43;100434.30;;;25.39;44.71
39275;BME280;24980;48.874;2.332;2023-04-24T04:43:13;100445.08;;;25.38;44.68
39275;BME280;24980;48.874;2.332;2023-04-24T04:45:44;100451.35;;;25.38;44.67
39275;BME280;24980;48.874;2.332;2023-04-24T04:48:14;100451.45;;;25.38;44.66
39275;BME280;24980;48.874;2.332;2023-04-24T04:50:44;100454.67;;;25.38;44.67
39275;BME280;24980;48.874;2.332;2023-04-24T04:53:14;100452.16;;;25.37;44.68
39275;BME280;24980;48.874;2.332;2023-04-24T04:55:47;100453.98;;;25.36;44.68
39275;BME280;24980;48.874;2.332;2023-04-24T05:00:44;100467.47;;;25.36;44.76
39275;BME280;24980;48.874;2.332;2023-04-24T05:03:14;100466.14;;;25.37;44.81
39275;BME280;24980;48.874;2.332;2023-04-24T05:05:44;100470.12;;;25.37;44.85
39275;BME280;24980;48.874;2.332;2023-04-24T05:08:15;100475.28;;;25.38;44.91
39275;BME280;24980;48.874;2.332;2023-04-24T05:10:45;100476.48;;;25.40;44.93
39275;BME280;24980;48.874;2.332;2023-04-24T05:13:15;100481.47;;;25.40;44.94
39275;BME280;24980;48.874;2.332;2023-04-24T05:15:46;100487.75;;;25.40;44.92
39275;BME280;24980;48.874;2.332;2023-04-24T05:18:17;100491.91;;;25.41;44.90
39275;BME280;24980;48.874;2.332;2023-04-24T05:20:46;100493.88;;;25.40;44.85
39275;BME280;24980;48.874;2.332;2023-04-24T05:23:16;100503.72;;;25.40;44.82
39275;BME280;24980;48.874;2.332;2023-04-24T05:25:47;100510.55;;;25.39;44.79
39275;BME280;24980;48.874;2.332;2023-04-24T05:28:17;100512.52;;;25.39;44.75
39275;BME280;24980;48.874;2.332;2023-04-24T05:30:47;100516.36;;;25.37;44.73
39275;BME280;24980;48.874;2.332;2023-04-24T05:33:17;100518.15;;;25.37;44.73
39275;BME280;24980;48.874;2.332;2023-04-24T05:35:47;100522.72;;;25.38;44.72
39275;BME280;24980;48.874;2.332;2023-04-24T05:38:18;100523.07;;;25.37;44.74
39275;BME280;24980;48.874;2.332;2023-04-24T05:40:48;100527.06;;;25.37;44.78
39275;BME280;24980;48.874;2.332;2023-04-24T05:43:18;100528.32;;;25.38;44.81
39275;BME280;24980;48.874;2.332;2023-04-24T05:45:48;100533.66;;;25.38;44.82
39275;BME280;24980;48.874;2.332;2023-04-24T05:48:18;100530.85;;;25.38;44.82
39275;BME280;24980;48.874;2.332;2023-04-24T05:50:50;100536.55;;;25.38;44.83
39275;BME280;24980;48.874;2.332;2023-04-24T05:53:19;100546.96;;;25.36;44.84
39275;BME280;24980;48.874;2.332;2023-04-24T05:55:49;100552.59;;;25.35;44.84
39275;BME280;24980;48.874;2.332;2023-04-24T05:58:19;100554.14;;;25.34;44.84
39275;BME280;24980;48.874;2.332;2023-04-24T06:00:49;100554.66;;;25.34;44.85
39275;BME280;24980;48.874;2.332;2023-04-24T06:03:19;100556.16;;;25.35;44.86
39275;BME280;24980;48.874;2.332;2023-04-24T06:05:50;100564.16;;;25.34;44.89
39275;BME280;24980;48.874;2.332;2023-04-24T06:10:50;100572.72;;;25.32;44.94
39275;BME280;24980;48.874;2.332;2023-04-24T06:13:20;100582.83;;;25.31;44.95
39275;BME280;24980;48.874;2.332;2023-04-24T06:15:50;100583.82;;;25.30;44.96
39275;BME280;24980;48.874;2.332;2023-04-24T06:18:25;100591.71;;;25.30;44.97
39275;BME280;24980;48.874;2.332;2023-04-24T06:20:51;100592.75;;;25.29;45.00
39275;BME280;24980;48.874;2.332;2023-04-24T06:23:21;100597.95;;;25.28;45.03
39275;BME280;24980;48.874;2.332;2023-04-24T06:25:52;100600.80;;;25.27;45.08
39275;BME280;24980;48.874;2.332;2023-04-24T06:28:28;100595.98;;;25.26;45.13
39275;BME280;24980;48.874;2.332;2023-04-24T06:30:52;100602.44;;;25.25;45.19
39275;BME280;24980;48.874;2.332;2023-04-24T06:33:22;100601.94;;;25.25;45.23
39275;BME280;24980;48.874;2.332;2023-04-24T06:35:52;100609.23;;;25.25;45.27
39275;BME280;24980;48.874;2.332;2023-04-24T06:38:22;100605.34;;;25.24;45.29
39275;BME280;24980;48.874;2.332;2023-04-24T06:40:52;100613.05;;;25.25;45.30
39275;BME280;24980;48.874;2.332;2023-04-24T06:43:28;100615.52;;;25.25;45.35
39275;BME280;24980;48.874;2.332;2023-04-24T06:45:53;100617.89;;;25.25;45.37
39275;BME280;24980;48.874;2.332;2023-04-24T06:48:23;100619.17;;;25.25;45.38
39275;BME280;24980;48.874;2.332;2023-04-24T06:50:55;100619.59;;;25.24;45.39
39275;BME280;24980;48.874;2.332;2023-04-24T06:53:24;100626.55;;;25.24;45.39
39275;BME280;24980;48.874;2.332;2023-04-24T06:55:54;100631.91;;;25.16;45.21
39275;BME280;24980;48.874;2.332;2023-04-24T06:58:24;100630.69;;;25.03;44.91
39275;BME280;24980;48.874;2.332;2023-04-24T07:00:54;100622.66;;;24.91;44.53
39275;BME280;24980;48.874;2.332;2023-04-24T07:03:24;100627.52;;;24.76;44.22
39275;BME280;24980;48.874;2.332;2023-04-24T07:05:54;100627.94;;;24.62;43.91
39275;BME280;24980;48.874;2.332;2023-04-24T07:08:26;100633.06;;;24.57;43.58
39275;BME280;24980;48.874;2.332;2023-04-24T07:10:55;100639.25;;;24.39;43.29
39275;BME280;24980;48.874;2.332;2023-04-24T07:13:25;100644.47;;;24.05;43.27
39275;BME280;24980;48.874;2.332;2023-04-24T07:15:55;100641.45;;;23.88;43.11
39275;BME280;24980;48.874;2.332;2023-04-24T07:18:25;100646.02;;;23.85;42.90
39275;BME280;24980;48.874;2.332;2023-04-24T07:20:55;100644.42;;;23.84;42.68
39275;BME280;24980;48.874;2.332;2023-04-24T07:23:25;100638.27;;;23.79;42.52
39275;BME280;24980;48.874;2.332;2023-04-24T07:25:55;100647.66;;;23.82;42.32
39275;BME280;24980;48.874;2.332;2023-04-24T07:28:25;100641.05;;;23.83;42.14
39275;BME280;24980;48.874;2.332;2023-04-24T07:30:56;100639.68;;;23.81;42.02
39275;BME280;24980;48.874;2.332;2023-04-24T07:33:26;100646.72;;;23.79;41.88
39275;BME280;24980;48.874;2.332;2023-04-24T07:35:56;100645.36;;;23.80;41.74
39275;BME280;24980;48.874;2.332;2023-04-24T07:38:28;100650.53;;;23.80;41.63
39275;BME280;24980;48.874;2.332;2023-04-24T07:40:57;100649.73;;;23.85;41.59
39275;BME280;24980;48.874;2.332;2023-04-24T07:43:27;100652.73;;;23.94;41.65
39275;BME280;24980;48.874;2.332;2023-04-24T07:45:57;100655.14;;;24.02;41.77
39275;BME280;24980;48.874;2.332;2023-04-24T07:48:33;100659.03;;;24.09;41.89
39275;BME280;24980;48.874;2.332;2023-04-24T07:50:58;100665.31;;;24.17;42.03
39275;BME280;24980;48.874;2.332;2023-04-24T07:53:28;100671.78;;;24.22;42.17
39275;BME280;24980;48.874;2.332;2023-04-24T07:55:58;100666.61;;;24.26;42.29
39275;BME280;24980;48.874;2.332;2023-04-24T07:58:29;100665.34;;;24.29;42.38
39275;BME280;24980;48.874;2.332;2023-04-24T08:00:59;100668.23;;;24.32;42.46
39275;BME280;24980;48.874;2.332;2023-04-24T08:03:29;100669.91;;;24.33;42.55
39275;BME280;24980;48.874;2.332;2023-04-24T08:05:59;100675.91;;;24.33;42.63
39275;BME280;24980;48.874;2.332;2023-04-24T08:08:29;100677.47;;;24.35;42.70
39275;BME280;24980;48.874;2.332;2023-04-24T08:10:59;100671.52;;;24.36;42.76
39275;BME280;24980;48.874;2.332;2023-04-24T08:13:29;100681.67;;;24.37;42.83
39275;BME280;24980;48.874;2.332;2023-04-24T08:15:59;100688.30;;;24.38;42.87
39275;BME280;24980;48.874;2.332;2023-04-24T08:18:33;100684.64;;;24.40;42.92
39275;BME280;24980;48.874;2.332;2023-04-24T08:21:00;100686.62;;;24.41;42.96
39275;BME280;24980;48.874;2.332;2023-04-24T08:23:30;100685.77;;;24.41;43.03
39275;BME280;24980;48.874;2.332;2023-04-24T08:26:01;100683.80;;;24.43;43.09
39275;BME280;24980;48.874;2.332;2023-04-24T08:28:31;100682.90;;;24.44;43.14
39275;BME280;24980;48.874;2.332;2023-04-24T08:31:01;100680.50;;;24.46;43.21
39275;BME280;24980;48.874;2.332;2023-04-24T08:33:31;100677.98;;;24.47;43.26
39275;BME280;24980;48.874;2.332;2023-04-24T08:36:02;100681.96;;;24.47;43.33
39275;BME280;24980;48.874;2.332;2023-04-24T08:38:32;100680.27;;;24.47;43.39
39275;BME280;24980;48.874;2.332;2023-04-24T08:41:02;100687.04;;;24.48;43.43
39275;BME280;24980;48.874;2.332;2023-04-24T08:43:33;100684.75;;;24.48;43.49
39275;BME280;24980;48.874;2.332;2023-04-24T08:46:04;100696.84;;;24.49;43.55
39275;BME280;24980;48.874;2.332;2023-04-24T08:51:05;100702.02;;;24.48;43.62
39275;BME280;24980;48.874;2.332;2023-04-24T08:53:35;100702.45;;;24.48;43.66
39275;BME280;24980;48.874;2.332;2023-04-24T08:56:05;100697.97;;;24.47;43.70
39275;BME280;24980;48.874;2.332;2023-04-24T08:58:35;100693.48;;;24.48;43.77
39275;BME280;24980;48.874;2.332;2023-04-24T09:01:06;100690.52;;;24.47;43.82
39275;BME280;24980;48.874;2.332;2023-04-24T09:03:37;100686.62;;;24.47;43.84
39275;BME280;24980;48.874;2.332;2023-04-24T09:06:08;100691.69;;;24.48;43.85
39275;BME280;24980;48.874;2.332;2023-04-24T09:08:41;100693.31;;;24.47;43.86
39275;BME280;24980;48.874;2.332;2023-04-24T09:11:08;100695.81;;;24.46;43.88
39275;BME280;24980;48.874;2.332;2023-04-24T09:13:39;100699.22;;;24.45;43.90
39275;BME280;24980;48.874;2.332;2023-04-24T09:16:10;100705.52;;;24.44;43.94
39275;BME280;24980;48.874;2.332;2023-04-24T09:18:40;100711.03;;;24.44;43.97
39275;BME280;24980;48.874;2.332;2023-04-24T09:21:15;100707.44;;;24.42;43.99
39275;BME280;24980;48.874;2.332;2023-04-24T09:23:40;100707.30;;;24.40;44.00
39275;BME280;24980;48.874;2.332;2023-04-24T09:26:10;100712.89;;;24.40;44.02
39275;BME280;24980;48.874;2.332;2023-04-24T09:28:43;100713.46;;;24.38;44.03
39275;BME280;24980;48.874;2.332;2023-04-24T09:31:18;100722.20;;;24.37;44.05
39275;BME280;24980;48.874;2.332;2023-04-24T09:34:01;100720.22;;;24.36;44.07
39275;BME280;24980;48.874;2.332;2023-04-24T09:36:13;100726.33;;;24.35;44.11
39275;BME280;24980;48.874;2.332;2023-04-24T09:38:44;100728.55;;;24.34;44.12
39275;BME280;24980;48.874;2.332;2023-04-24T09:41:15;100723.94;;;24.33;44.16
39275;BME280;24980;48.874;2.332;2023-04-24T09:43:44;100735.22;;;24.32;44.18
39275;BME280;24980;48.874;2.332;2023-04-24T09:46:18;100732.09;;;24.31;44.23
39275;BME280;24980;48.874;2.332;2023-04-24T09:48:44;100733.75;;;24.30;44.27
39275;BME280;24980;48.874;2.332;2023-04-24T09:51:35;100730.30;;;24.30;44.30
39275;BME280;24980;48.874;2.332;2023-04-24T09:53:47;100729.45;;;24.29;44.32
39275;BME280;24980;48.874;2.332;2023-04-24T09:56:15;100734.46;;;24.28;44.33
39275;BME280;24980;48.874;2.332;2023-04-24T09:58:48;100733.23;;;24.27;44.35
39275;BME280;24980;48.874;2.332;2023-04-24T10:01:16;100733.00;;;24.26;44.37
39275;BME280;24980;48.874;2.332;2023-04-24T10:03:47;100735.47;;;24.26;44.38
39275;BME280;24980;48.874;2.332;2023-04-24T10:06:17;100726.91;;;24.25;44.42
39275;BME280;24980;48.874;2.332;2023-04-24T10:08:48;100730.70;;;24.24;44.47
39275;BME280;24980;48.874;2.332;2023-04-24T10:11:18;100731.80;;;24.24;44.50
39275;BME280;24980;48.874;2.332;2023-04-24T10:13:48;100730.15;;;24.24;44.54
39275;BME280;24980;48.874;2.332;2023-04-24T10:16:19;100728.17;;;24.23;44.56
39275;BME280;24980;48.874;2.332;2023-04-24T10:21:21;100731.56;;;24.23;44.59
39275;BME280;24980;48.874;2.332;2023-04-24T10:23:51;100731.13;;;24.23;44.62
39275;BME280;24980;48.874;2.332;2023-04-24T10:26:22;100731.30;;;24.24;44.65
39275;BME280;24980;48.874;2.332;2023-04-24T10:28:54;100728.34;;;24.23;44.66
39275;BME280;24980;48.874;2.332;2023-04-24T10:31:23;100734.52;;;24.23;44.68
39275;BME280;24980;48.874;2.332;2023-04-24T10:33:55;100730.64;;;24.22;44.70
39275;BME280;24980;48.874;2.332;2023-04-24T10:36:28;100729.42;;;24.21;44.72
39275;BME280;24980;48.874;2.332;2023-04-24T10:38:56;100733.59;;;24.20;44.73
39275;BME280;24980;48.874;2.332;2023-04-24T10:41:26;100744.17;;;24.20;44.75
39275;BME280;24980;48.874;2.332;2023-04-24T10:44:11;100733.17;;;24.19;44.77
39275;BME280;24980;48.874;2.332;2023-04-24T10:46:27;100732.00;;;24.18;44.78
39275;BME280;24980;48.874;2.332;2023-04-24T10:48:59;100732.05;;;24.17;44.79
39275;BME280;24980;48.874;2.332;2023-04-24T10:51:46;100732.59;;;24.15;44.80
39275;BME280;24980;48.874;2.332;2023-04-24T10:53:57;100731.64;;;24.16;44.80
39275;BME280;24980;48.874;2.332;2023-04-24T10:56:27;100734.84;;;24.13;44.81
39275;BME280;24980;48.874;2.332;2023-04-24T10:58:57;100726.81;;;24.12;44.82
39275;BME280;24980;48.874;2.332;2023-04-24T11:01:29;100725.98;;;24.11;44.82
39275;BME280;24980;48.874;2.332;2023-04-24T11:04:00;100721.41;;;24.11;44.83
39275;BME280;24980;48.874;2.332;2023-04-24T11:06:34;100719.12;;;24.11;44.82
39275;BME280;24980;48.874;2.332;2023-04-24T11:09:07;100721.74;;;24.11;44.84
39275;BME280;24980;48.874;2.332;2023-04-24T11:11:33;100722.11;;;24.09;44.85
39275;BME280;24980;48.874;2.332;2023-04-24T11:14:03;100722.20;;;24.09;44.87
39275;BME280;24980;48.874;2.332;2023-04-24T11:16:52;100727.53;;;24.09;44.90
39275;BME280;24980;48.874;2.332;2023-04-24T11:19:06;100724.98;;;24.09;44.93
39275;BME280;24980;48.874;2.332;2023-04-24T11:21:40;100728.03;;;24.10;44.95
39275;BME280;24980;48.874;2.332;2023-04-24T11:24:31;100732.53;;;24.09;44.97
39275;BME280;24980;48.874;2.332;2023-04-24T11:26:38;100732.86;;;24.09;44.99
39275;BME280;24980;48.874;2.332;2023-04-24T11:29:13;100725.00;;;24.08;45.03
39275;BME280;24980;48.874;2.332;2023-04-24T11:31:39;100717.00;;;24.08;45.08
39275;BME280;24980;48.874;2.332;2023-04-24T11:34:13;100719.96;;;24.08;45.13
39275;BME280;24980;48.874;2.332;2023-04-24T11:36:36;100712.26;;;24.08;45.15
39275;BME280;24980;48.874;2.332;2023-04-24T11:39:09;100717.59;;;24.07;45.18
39275;BME280;24980;48.874;2.332;2023-04-24T11:41:38;100714.66;;;24.06;45.20
39275;BME280;24980;48.874;2.332;2023-04-24T11:44:09;100716.78;;;24.05;45.25
39275;BME280;24980;48.874;2.332;2023-04-24T11:46:38;100715.05;;;24.05;45.29
39275;BME280;24980;48.874;2.332;2023-04-24T11:49:08;100713.44;;;24.04;45.36
39275;BME280;24980;48.874;2.332;2023-04-24T11:51:38;100712.00;;;24.05;45.42
39275;BME280;24980;48.874;2.332;2023-04-24T11:54:08;100712.59;;;24.04;45.48
39275;BME280;24980;48.874;2.332;2023-04-24T11:56:38;100713.56;;;24.05;45.53
39275;BME280;24980;48.874;2.332;2023-04-24T11:59:08;100706.62;;;24.05;45.56
39275;BME280;24980;48.874;2.332;2023-04-24T12:01:44;100710.17;;;24.06;45.58
39275;BME280;24980;48.874;2.332;2023-04-24T12:04:09;100700.94;;;24.06;45.59
39275;BME280;24980;48.874;2.332;2023-04-24T12:06:41;100697.47;;;24.06;45.60
39275;BME280;24980;48.874;2.332;2023-04-24T12:09:09;100701.36;;;24.06;45.61
39275;BME280;24980;48.874;2.332;2023-04-24T12:11:53;100700.51;;;24.06;45.62
39275;BME280;24980;48.874;2.332;2023-04-24T12:14:12;100700.51;;;24.06;45.64
39275;BME280;24980;48.874;2.332;2023-04-24T12:16:41;100697.98;;;24.06;45.67
39275;BME280;24980;48.874;2.332;2023-04-24T12:19:11;100702.30;;;24.05;45.69
39275;BME280;24980;48.874;2.332;2023-04-24T12:21:42;100698.47;;;24.03;45.70
39275;BME280;24980;48.874;2.332;2023-04-24T12:24:12;100702.39;;;24.02;45.71
39275;BME280;24980;48.874;2.332;2023-04-24T12:26:45;100703.47;;;23.99;45.72
39275;BME280;24980;48.874;2.332;2023-04-24T12:29:20;100707.01;;;23.97;45.71
39275;BME280;24980;48.874;2.332;2023-04-24T12:31:43;100700.56;;;23.94;45.72
39275;BME280;24980;48.874;2.332;2023-04-24T12:34:20;100695.93;;;23.92;45.71
39275;BME280;24980;48.874;2.332;2023-04-24T12:36:44;100697.77;;;23.90;45.71
39275;BME280;24980;48.874;2.332;2023-04-24T12:39:14;100692.41;;;23.88;45.69
39275;BME280;24980;48.874;2.332;2023-04-24T12:41:53;100691.22;;;23.85;45.69
39275;BME280;24980;48.874;2.332;2023-04-24T12:44:16;100692.16;;;23.84;45.69
39275;BME280;24980;48.874;2.332;2023-04-24T12:46:45;100685.70;;;23.82;45.67
39275;BME280;24980;48.874;2.332;2023-04-24T12:49:15;100688.70;;;23.80;45.66
39275;BME280;24980;48.874;2.332;2023-04-24T12:51:46;100688.50;;;23.78;45.65
39275;BME280;24980;48.874;2.332;2023-04-24T12:54:16;100687.51;;;23.76;45.64
39275;BME280;24980;48.874;2.332;2023-04-24T12:56:46;100695.19;;;23.74;45.62
39275;BME280;24980;48.874;2.332;2023-04-24T12:59:17;100693.20;;;23.73;45.61
39275;BME280;24980;48.874;2.332;2023-04-24T13:01:48;100690.10;;;23.70;45.61
39275;BME280;24980;48.874;2.332;2023-04-24T13:04:17;100687.20;;;23.69;45.61
39275;BME280;24980;48.874;2.332;2023-04-24T13:06:47;100685.09;;;23.67;45.60
39275;BME280;24980;48.874;2.332;2023-04-24T13:09:18;100686.25;;;23.66;45.60
39275;BME280;24980;48.874;2.332;2023-04-24T13:11:48;100686.94;;;23.65;45.61
39275;BME280;24980;48.874;2.332;2023-04-24T13:14:23;100681.03;;;23.63;45.61
39275;BME280;24980;48.874;2.332;2023-04-24T13:16:49;100690.89;;;23.63;45.63